createdAt,value
2023-08-10T00:14:31.380Z,9.20
2023-08-10T00:17:00.895Z,7.90
2023-08-10T00:19:28.797Z,7.00
2023-08-10T00:21:57.936Z,9.10
2023-08-10T00:24:29.118Z,7.20
2023-08-10T00:27:01.624Z,9.20
2023-08-10T00:29:30.739Z,8.90
2023-08-10T00:31:59.211Z,7.70
2023-08-10T00:34:28.548Z,6.00
2023-08-10T00:36:57.859Z,7.00
2023-08-10T00:39:27.784Z,4.90
2023-08-10T00:41:56.630Z,7.20
2023-08-10T00:44:25.763Z,7.40
2023-08-10T00:46:55.180Z,11.50
2023-08-10T00:49:31.288Z,7.10
2023-08-10T00:51:59.953Z,9.50
2023-08-10T00:54:31.237Z,5.70
2023-08-10T00:57:00.936Z,8.40
2023-08-10T00:59:36.259Z,9.70
2023-08-10T01:02:05.667Z,8.10
2023-08-10T01:04:34.826Z,8.30
2023-08-10T01:10:26.640Z,7.50
2023-08-10T01:13:06.407Z,7.60
2023-08-10T01:15:48.305Z,10.40
2023-08-10T01:18:20.755Z,7.70
2023-08-10T01:20:59.256Z,6.50
2023-08-10T01:23:42.433Z,8.60
2023-08-10T01:26:22.186Z,6.40
2023-08-10T01:28:53.561Z,11.60
2023-08-10T01:31:22.573Z,12.50
2023-08-10T01:33:51.341Z,8.50
2023-08-10T01:36:19.542Z,8.00
2023-08-10T01:38:47.748Z,8.30
2023-08-10T01:41:16.944Z,9.00
2023-08-10T01:43:45.834Z,8.10
2023-08-10T01:46:18.320Z,12.10
2023-08-10T01:48:49.226Z,5.80
2023-08-10T01:51:23.108Z,9.30
2023-08-10T01:53:54.034Z,9.80
2023-08-10T01:56:22.214Z,7.10
2023-08-10T01:58:51.380Z,9.40
2023-08-10T02:01:19.555Z,11.20
2023-08-10T02:03:46.903Z,7.90
2023-08-10T02:06:14.469Z,7.30
2023-08-10T02:08:43.759Z,10.30
2023-08-10T02:11:11.643Z,9.50
2023-08-10T02:13:40.356Z,9.10
2023-08-10T02:16:08.558Z,8.00
2023-08-10T02:18:36.962Z,9.90
2023-08-10T02:21:05.432Z,10.30
2023-08-10T02:23:34.145Z,11.60
2023-08-10T02:26:01.308Z,9.70
2023-08-10T02:28:29.935Z,10.30
2023-08-10T02:30:59.297Z,12.40
2023-08-10T02:33:26.978Z,10.80
2023-08-10T02:35:56.855Z,6.40
2023-08-10T02:38:24.105Z,8.70
2023-08-10T02:40:53.348Z,8.60
2023-08-10T02:43:22.156Z,7.50
2023-08-10T02:45:51.168Z,8.50
2023-08-10T02:48:21.194Z,9.30
2023-08-10T02:50:51.153Z,9.90
2023-08-10T02:53:19.743Z,7.80
2023-08-10T02:55:49.938Z,10.40
2023-08-10T02:58:21.507Z,10.30
2023-08-10T03:00:49.330Z,7.50
2023-08-10T03:03:18.002Z,11.10
2023-08-10T03:05:46.499Z,9.60
2023-08-10T03:08:15.283Z,6.10
2023-08-10T03:10:44.158Z,8.00
2023-08-10T03:13:15.590Z,6.60
2023-08-10T03:15:43.343Z,6.90
2023-08-10T03:18:14.319Z,13.60
2023-08-10T03:20:44.881Z,12.50
2023-08-10T03:23:12.939Z,11.20
2023-08-10T03:25:45.456Z,8.80
2023-08-10T03:28:15.808Z,8.60
2023-08-10T03:30:45.035Z,9.50
2023-08-10T03:33:13.450Z,11.50
2023-08-10T03:35:42.881Z,11.90
2023-08-10T03:38:11.692Z,10.60
2023-08-10T03:40:40.900Z,10.30
2023-08-10T03:43:11.118Z,10.80
2023-08-10T03:45:39.618Z,10.80
2023-08-10T03:48:08.940Z,9.50
2023-08-10T03:50:37.553Z,6.80
2023-08-10T03:53:08.415Z,11.30
2023-08-10T03:55:37.668Z,11.60
2023-08-10T03:58:05.625Z,7.10
2023-08-10T04:00:33.160Z,8.70
2023-08-10T04:03:01.358Z,10.00
2023-08-10T04:05:30.476Z,11.60
2023-08-10T04:07:59.658Z,8.00
2023-08-10T04:10:28.237Z,7.00
2023-08-10T04:12:56.280Z,6.00
2023-08-10T04:15:24.704Z,6.90
2023-08-10T04:17:53.922Z,8.00
2023-08-10T04:20:22.144Z,10.00
2023-08-10T04:22:51.130Z,7.50
2023-08-10T04:25:22.062Z,10.10
2023-08-10T04:27:50.065Z,9.10
2023-08-10T04:30:18.939Z,8.20
2023-08-10T04:32:46.917Z,12.90
2023-08-10T04:35:15.910Z,6.50
2023-08-10T04:37:45.546Z,9.30
2023-08-10T04:40:16.719Z,8.00
2023-08-10T04:42:46.189Z,9.70
2023-08-10T04:45:14.270Z,10.60
2023-08-10T04:47:43.937Z,11.70
2023-08-10T04:50:12.589Z,5.20
2023-08-10T04:52:43.556Z,10.70
2023-08-10T04:55:12.092Z,9.80
2023-08-10T04:57:42.819Z,8.80
2023-08-10T05:00:12.580Z,9.10
2023-08-10T05:02:42.512Z,9.80
2023-08-10T05:05:14.478Z,8.00
2023-08-10T05:07:43.334Z,10.80
2023-08-10T05:10:11.221Z,7.00
2023-08-10T05:12:39.948Z,12.50
2023-08-10T05:15:09.612Z,9.30
2023-08-10T05:17:38.977Z,8.30
2023-08-10T05:20:10.298Z,6.60
2023-08-10T05:22:58.713Z,5.50
2023-08-10T05:25:27.599Z,13.50
2023-08-10T05:27:58.126Z,7.50
2023-08-10T05:30:26.805Z,8.10
2023-08-10T05:32:55.048Z,8.70
2023-08-10T05:35:23.762Z,10.90
2023-08-10T05:37:52.266Z,6.80
2023-08-10T05:40:19.729Z,12.00
2023-08-10T05:42:47.360Z,11.40
2023-08-10T05:45:14.822Z,8.20
2023-08-10T05:47:44.840Z,9.50
2023-08-10T05:50:15.585Z,6.30
2023-08-10T05:52:56.120Z,7.60
2023-08-10T05:55:25.118Z,9.80
2023-08-10T05:57:53.881Z,7.70
2023-08-10T06:00:23.644Z,9.90
2023-08-10T06:02:52.205Z,8.50
2023-08-10T06:05:20.083Z,7.90
2023-08-10T06:07:49.775Z,8.10
2023-08-10T06:10:19.162Z,9.90
2023-08-10T06:12:50.628Z,10.20
2023-08-10T06:15:18.341Z,9.90
2023-08-10T06:17:49.144Z,9.50
2023-08-10T06:20:17.890Z,8.50
2023-08-10T06:22:47.115Z,8.40
2023-08-10T06:25:17.212Z,7.60
2023-08-10T06:27:48.441Z,10.20
2023-08-10T06:30:18.308Z,11.30
2023-08-10T06:32:47.120Z,13.40
2023-08-10T06:35:16.052Z,10.00
2023-08-10T06:37:44.411Z,11.20
2023-08-10T06:40:13.017Z,10.50
2023-08-10T06:42:41.317Z,12.80
2023-08-10T06:45:13.693Z,5.80
2023-08-10T06:47:44.306Z,11.70
2023-08-10T06:50:14.114Z,8.80
2023-08-10T06:53:02.639Z,9.20
2023-08-10T06:55:35.057Z,10.40
2023-08-10T06:58:08.621Z,9.90
2023-08-10T07:00:39.713Z,8.80
2023-08-10T07:03:14.086Z,15.50
2023-08-10T07:05:52.933Z,7.90
2023-08-10T07:08:27.262Z,12.40
2023-08-10T07:10:56.312Z,9.50
2023-08-10T07:13:29.497Z,15.60
2023-08-10T07:16:01.573Z,14.10
2023-08-10T07:18:31.950Z,27.90
2023-08-10T07:21:00.428Z,45.20
2023-08-10T07:23:40.245Z,34.40
2023-08-10T07:26:17.201Z,17.90
2023-08-10T07:28:46.536Z,14.70
2023-08-10T07:31:17.204Z,11.20
2023-08-10T07:33:47.634Z,19.30
2023-08-10T07:36:16.768Z,25.20
2023-08-10T07:38:46.978Z,15.10
2023-08-10T07:41:17.345Z,24.70
2023-08-10T07:43:47.067Z,10.70
2023-08-10T07:46:17.298Z,11.90
2023-08-10T07:48:47.905Z,12.20
2023-08-10T07:51:19.022Z,12.60
2023-08-10T07:54:04.518Z,24.70
2023-08-10T07:56:34.749Z,27.90
2023-08-10T07:59:04.748Z,15.30
2023-08-10T08:01:34.327Z,13.90
2023-08-10T08:04:04.622Z,10.10
2023-08-10T08:06:36.430Z,17.70
2023-08-10T08:09:26.966Z,14.30
2023-08-10T08:11:55.472Z,17.80
2023-08-10T08:14:23.880Z,16.30
2023-08-10T08:16:52.900Z,12.80
2023-08-10T08:19:22.090Z,15.80
2023-08-10T08:21:50.554Z,14.90
2023-08-10T08:24:19.629Z,15.70
2023-08-10T08:26:48.820Z,24.30
2023-08-10T08:29:18.631Z,22.50
2023-08-10T08:31:47.672Z,20.00
2023-08-10T08:34:16.153Z,12.00
2023-08-10T08:36:44.724Z,15.50
2023-08-10T08:39:14.466Z,14.10
2023-08-10T08:41:45.488Z,12.70
2023-08-10T08:44:16.127Z,12.90
2023-08-10T08:46:49.341Z,8.20
2023-08-10T08:49:18.780Z,11.00
2023-08-10T08:51:48.455Z,8.20
2023-08-10T08:54:17.413Z,9.10
2023-08-10T08:56:46.248Z,14.90
2023-08-10T08:59:17.293Z,15.20
2023-08-10T09:01:48.889Z,9.40
2023-08-10T09:04:17.909Z,8.20
2023-08-10T09:06:46.991Z,9.90
2023-08-10T09:09:17.646Z,11.10
2023-08-10T09:11:46.256Z,9.90
2023-08-10T09:14:16.987Z,13.00
2023-08-10T09:16:46.937Z,11.70
2023-08-10T09:19:18.519Z,10.80
2023-08-10T09:21:47.751Z,11.80
2023-08-10T09:24:17.602Z,15.10
2023-08-10T09:26:45.944Z,11.20
2023-08-10T09:29:15.018Z,9.00
2023-08-10T09:31:45.120Z,9.40
2023-08-10T09:34:23.151Z,14.50
2023-08-10T09:36:56.867Z,13.20
2023-08-10T09:39:32.197Z,10.10
2023-08-10T09:42:01.486Z,11.70
2023-08-10T09:44:44.532Z,11.80
2023-08-10T09:47:14.349Z,9.80
2023-08-10T09:49:55.318Z,10.30
2023-08-10T09:52:30.632Z,10.00
2023-08-10T09:54:59.529Z,8.80
2023-08-10T09:57:28.924Z,10.20
2023-08-10T09:59:58.966Z,13.00
2023-08-10T10:02:29.401Z,9.00
2023-08-10T10:04:58.946Z,12.70
2023-08-10T10:07:37.439Z,13.90
2023-08-10T10:10:12.058Z,9.80
2023-08-10T10:12:48.736Z,13.00
2023-08-10T10:15:20.036Z,11.50
2023-08-10T10:17:53.138Z,8.30
2023-08-10T10:20:22.897Z,10.30
2023-08-10T10:22:52.904Z,10.30
2023-08-10T10:25:21.508Z,11.40
2023-08-10T10:27:53.032Z,13.60
2023-08-10T10:30:30.758Z,10.60
2023-08-10T10:33:11.493Z,13.00
2023-08-10T10:39:05.384Z,12.50
2023-08-10T10:41:35.720Z,13.50
2023-08-10T10:44:07.142Z,16.30
2023-08-10T10:46:36.526Z,7.40
2023-08-10T10:49:08.159Z,8.40
2023-08-10T10:52:09.668Z,8.70
2023-08-10T10:54:58.004Z,9.40
2023-08-10T10:57:29.027Z,12.60
2023-08-10T10:59:58.071Z,11.70
2023-08-10T11:02:28.859Z,13.30
2023-08-10T11:05:17.878Z,8.50
2023-08-10T11:07:50.291Z,14.10
2023-08-10T11:10:20.959Z,8.50
2023-08-10T11:12:50.762Z,7.70
2023-08-10T11:15:21.500Z,8.90
2023-08-10T11:17:53.274Z,8.40
2023-08-10T11:20:30.331Z,9.40
2023-08-10T11:23:00.023Z,19.20
2023-08-10T11:25:28.413Z,15.00
2023-08-10T11:28:00.485Z,7.70
2023-08-10T11:30:35.219Z,12.50
2023-08-10T11:33:11.491Z,12.70
2023-08-10T11:35:44.541Z,12.00
2023-08-10T11:38:15.932Z,11.40
2023-08-10T11:40:46.642Z,10.20
2023-08-10T11:43:16.415Z,11.10
2023-08-10T11:45:45.296Z,13.00
2023-08-10T11:48:18.577Z,13.10
2023-08-10T11:50:48.784Z,16.30
2023-08-10T11:53:20.843Z,12.10
2023-08-10T11:55:51.585Z,15.80
2023-08-10T11:58:21.512Z,16.40
2023-08-10T12:00:52.178Z,12.80
2023-08-10T12:03:33.542Z,11.20
2023-08-10T12:06:05.860Z,12.40
2023-08-10T12:08:41.504Z,9.70
2023-08-10T12:11:16.587Z,14.10
2023-08-10T12:13:51.154Z,10.70
2023-08-10T12:16:22.360Z,14.20
2023-08-10T12:18:51.535Z,11.30
2023-08-10T12:21:20.530Z,11.30
2023-08-10T12:23:56.695Z,15.70
2023-08-10T12:26:25.682Z,9.00
2023-08-10T12:28:54.011Z,12.70
2023-08-10T12:31:22.760Z,8.60
2023-08-10T12:33:52.959Z,16.80
2023-08-10T12:36:21.189Z,9.10
2023-08-10T12:38:49.537Z,14.90
2023-08-10T12:41:17.858Z,20.40
2023-08-10T12:43:46.357Z,18.40
2023-08-10T12:46:16.425Z,11.60
2023-08-10T12:48:45.726Z,10.90
2023-08-10T12:51:14.844Z,15.30
2023-08-10T12:53:43.365Z,13.80
2023-08-10T12:56:12.199Z,11.90
2023-08-10T12:58:41.138Z,12.00
2023-08-10T13:01:09.639Z,10.40
2023-08-10T13:03:39.063Z,13.20
2023-08-10T13:06:07.509Z,8.10
2023-08-10T13:08:35.919Z,15.10
2023-08-10T13:11:04.955Z,14.40
2023-08-10T13:13:34.362Z,13.00
2023-08-10T13:16:04.207Z,9.20
2023-08-10T13:18:33.659Z,13.20
2023-08-10T13:21:02.178Z,11.20
2023-08-10T13:23:30.633Z,10.00
2023-08-10T13:26:01.083Z,10.60
2023-08-10T13:28:29.968Z,15.70
2023-08-10T13:30:59.860Z,11.00
2023-08-10T13:33:28.294Z,10.10
2023-08-10T13:35:57.266Z,11.10
2023-08-10T13:38:30.400Z,11.20
2023-08-10T13:40:59.720Z,10.70
2023-08-10T13:43:28.675Z,13.30
2023-08-10T13:45:57.175Z,11.70
2023-08-10T13:48:26.097Z,9.80
2023-08-10T13:50:54.415Z,14.10
2023-08-10T13:53:23.752Z,15.90
2023-08-10T13:55:53.064Z,14.40
2023-08-10T13:58:22.679Z,11.10
2023-08-10T14:00:51.146Z,13.50
2023-08-10T14:03:19.795Z,9.10
2023-08-10T14:05:48.659Z,12.80
2023-08-10T14:08:18.320Z,14.90
2023-08-10T14:10:46.787Z,10.80
2023-08-10T14:13:15.476Z,12.20
2023-08-10T14:15:44.595Z,12.10
2023-08-10T14:18:13.083Z,13.20
2023-08-10T14:20:42.012Z,16.00
2023-08-10T14:23:10.594Z,14.80
2023-08-10T14:25:38.963Z,10.20
2023-08-10T14:28:07.274Z,13.00
2023-08-10T14:30:35.990Z,14.70
2023-08-10T14:33:04.942Z,12.60
2023-08-10T14:35:34.566Z,9.80
2023-08-10T14:38:04.399Z,10.50
2023-08-10T14:40:32.617Z,11.30
2023-08-10T14:43:01.165Z,15.30
2023-08-10T14:45:31.301Z,11.60
2023-08-10T14:48:01.937Z,8.90
2023-08-10T14:50:30.561Z,18.50
2023-08-10T14:52:59.208Z,19.30
2023-08-10T14:55:28.259Z,15.10
2023-08-10T14:57:56.774Z,15.40
2023-08-10T15:00:25.236Z,15.60
2023-08-10T15:02:53.776Z,10.00
2023-08-10T15:05:23.287Z,10.30
2023-08-10T15:07:51.947Z,17.70
2023-08-10T15:10:21.573Z,9.50
2023-08-10T15:12:50.341Z,11.30
2023-08-10T15:15:20.669Z,13.70
2023-08-10T15:17:50.360Z,19.60
2023-08-10T15:20:20.965Z,15.40
2023-08-10T15:22:49.868Z,12.00
2023-08-10T15:25:19.162Z,15.70
2023-08-10T15:27:47.505Z,11.40
2023-08-10T15:30:17.009Z,16.50
2023-08-10T15:32:46.523Z,18.00
2023-08-10T15:35:15.059Z,9.30
2023-08-10T15:37:43.708Z,14.20
2023-08-10T15:40:12.624Z,19.70
2023-08-10T15:42:41.126Z,17.60
2023-08-10T15:45:10.922Z,17.30
2023-08-10T15:47:39.549Z,17.00
2023-08-10T15:50:11.352Z,19.20
2023-08-10T15:52:41.529Z,18.40
2023-08-10T15:55:10.793Z,15.90
2023-08-10T15:57:39.788Z,20.60
2023-08-10T16:00:09.915Z,18.80
2023-08-10T16:02:39.455Z,18.50
2023-08-10T16:05:09.384Z,22.00
2023-08-10T16:07:39.313Z,15.20
2023-08-10T16:10:09.016Z,15.70
2023-08-10T16:12:38.296Z,15.20
2023-08-10T16:15:08.286Z,23.30
2023-08-10T16:17:37.462Z,20.40
2023-08-10T16:20:09.881Z,14.90
2023-08-10T16:22:47.463Z,16.60
2023-08-10T16:25:16.614Z,17.90
2023-08-10T16:27:45.102Z,19.20
2023-08-10T16:30:14.018Z,21.00
2023-08-10T16:32:43.179Z,26.80
2023-08-10T16:35:11.726Z,19.00
2023-08-10T16:37:41.114Z,18.10
2023-08-10T16:40:09.755Z,16.90
2023-08-10T16:42:38.404Z,19.30
2023-08-10T16:45:07.511Z,14.80
2023-08-10T16:47:36.180Z,17.80
2023-08-10T16:50:06.136Z,16.40
2023-08-10T16:52:34.426Z,22.30
2023-08-10T16:55:07.245Z,18.20
2023-08-10T16:57:35.637Z,17.40
2023-08-10T17:00:09.918Z,19.50
2023-08-10T17:02:38.882Z,19.90
2023-08-10T17:05:07.885Z,27.40
2023-08-10T17:07:36.442Z,14.90
2023-08-10T17:10:06.337Z,20.00
2023-08-10T17:12:35.200Z,20.20
2023-08-10T17:15:04.292Z,20.50
2023-08-10T17:17:33.573Z,18.40
2023-08-10T17:20:02.648Z,16.50
2023-08-10T17:22:31.496Z,24.00
2023-08-10T17:24:59.975Z,18.20
2023-08-10T17:27:28.512Z,20.00
2023-08-10T17:29:59.165Z,17.80
2023-08-10T17:32:27.719Z,19.20
2023-08-10T17:34:57.973Z,18.90
2023-08-10T17:37:37.785Z,18.80
2023-08-10T17:40:10.092Z,22.30
2023-08-10T17:42:38.966Z,17.70
2023-08-10T17:45:08.093Z,25.10
2023-08-10T17:47:37.232Z,15.30
2023-08-10T17:50:07.673Z,23.40
2023-08-10T17:52:40.353Z,22.30
2023-08-10T17:55:12.157Z,22.00
2023-08-10T17:57:41.518Z,17.60
2023-08-10T18:00:13.356Z,16.30
2023-08-10T18:02:42.777Z,13.30
2023-08-10T18:05:12.663Z,22.00
2023-08-10T18:07:41.249Z,21.20
2023-08-10T18:10:10.158Z,24.20
2023-08-10T18:12:46.699Z,20.30
2023-08-10T18:15:16.351Z,19.80
2023-08-10T18:17:45.111Z,18.10
2023-08-10T18:20:14.083Z,20.20
2023-08-10T18:22:42.748Z,21.80
2023-08-10T18:25:11.220Z,20.80
2023-08-10T18:27:40.642Z,17.90
2023-08-10T18:30:10.181Z,18.00
2023-08-10T18:32:39.743Z,22.40
2023-08-10T18:35:10.339Z,23.90
2023-08-10T18:37:38.816Z,21.30
2023-08-10T18:40:08.042Z,13.60
2023-08-10T18:42:36.464Z,19.90
2023-08-10T18:45:06.348Z,20.20
2023-08-10T18:47:35.416Z,23.20
2023-08-10T18:50:06.888Z,20.90
2023-08-10T18:52:35.247Z,17.80
2023-08-10T18:55:03.680Z,23.30
2023-08-10T18:57:33.693Z,21.00
2023-08-10T19:00:02.538Z,26.20
2023-08-10T19:02:32.304Z,20.50
2023-08-10T19:05:01.073Z,24.20
2023-08-10T19:07:29.425Z,24.20
2023-08-10T19:09:59.260Z,23.10
2023-08-10T19:12:28.423Z,21.20
2023-08-10T19:14:57.048Z,17.10
2023-08-10T19:17:26.192Z,22.40
2023-08-10T19:19:54.957Z,19.90
2023-08-10T19:22:23.354Z,23.60
2023-08-10T19:24:52.040Z,22.70
2023-08-10T19:27:21.082Z,27.90
2023-08-10T19:29:49.820Z,19.40
2023-08-10T19:32:18.500Z,15.80
2023-08-10T19:34:47.867Z,19.30
2023-08-10T19:37:16.284Z,14.40
2023-08-10T19:39:44.756Z,21.20
2023-08-10T19:42:14.254Z,16.20
2023-08-10T19:44:44.566Z,17.30
2023-08-10T19:47:14.238Z,21.50
2023-08-10T19:49:46.988Z,16.70
2023-08-10T19:52:15.913Z,22.00
2023-08-10T19:54:47.313Z,23.90
2023-08-10T19:57:15.985Z,19.70
2023-08-10T19:59:44.609Z,27.50
2023-08-10T20:02:13.045Z,18.20
2023-08-10T20:04:42.052Z,20.50
2023-08-10T20:07:11.221Z,20.30
2023-08-10T20:09:40.658Z,16.90
2023-08-10T20:12:09.689Z,20.60
2023-08-10T20:14:38.356Z,25.30
2023-08-10T20:17:07.545Z,22.10
2023-08-10T20:19:36.449Z,25.60
2023-08-10T20:22:06.360Z,14.00
2023-08-10T20:24:46.327Z,19.90
2023-08-10T20:27:15.458Z,23.40
2023-08-10T20:29:44.563Z,16.40
2023-08-10T20:32:14.659Z,10.80
2023-08-10T20:34:43.582Z,16.30
2023-08-10T20:37:13.091Z,21.10
2023-08-10T20:39:42.253Z,18.30
2023-08-10T20:42:13.765Z,18.30
2023-08-10T20:44:44.264Z,26.50
2023-08-10T20:47:13.179Z,19.90
2023-08-10T20:49:42.759Z,19.20
2023-08-10T20:52:15.029Z,13.90
2023-08-10T20:54:43.603Z,20.50
2023-08-10T20:57:12.413Z,17.10
2023-08-10T20:59:43.942Z,18.30
2023-08-10T21:02:12.618Z,19.90
2023-08-10T21:04:41.634Z,18.50
2023-08-10T21:07:11.361Z,25.10
2023-08-10T21:09:41.160Z,16.90
2023-08-10T21:12:10.937Z,16.40
2023-08-10T21:14:40.000Z,16.40
2023-08-10T21:17:09.674Z,20.70
2023-08-10T21:19:38.704Z,21.90
2023-08-10T21:22:08.628Z,14.50
2023-08-10T21:24:38.119Z,20.60
2023-08-10T21:27:07.335Z,14.80
2023-08-10T21:29:38.102Z,12.90
2023-08-10T21:32:06.946Z,19.40
2023-08-10T21:34:36.574Z,16.90
2023-08-10T21:37:05.485Z,21.70
2023-08-10T21:39:39.312Z,14.10
2023-08-10T21:42:08.498Z,15.00
2023-08-10T21:44:37.063Z,19.20
2023-08-10T21:47:06.548Z,15.40
2023-08-10T21:49:35.251Z,12.30
2023-08-10T21:52:03.551Z,19.90
2023-08-10T21:54:32.709Z,17.20
2023-08-10T21:57:03.253Z,18.60
2023-08-10T21:59:33.607Z,20.30
2023-08-10T22:02:03.200Z,19.40
2023-08-10T22:04:32.928Z,17.70
2023-08-10T22:07:05.686Z,19.20
2023-08-10T22:09:35.897Z,19.50
2023-08-10T22:12:05.128Z,14.60
2023-08-10T22:14:34.364Z,22.60
2023-08-10T22:17:04.168Z,15.40
2023-08-10T22:19:32.654Z,16.50
2023-08-10T22:22:01.353Z,14.60
2023-08-10T22:24:29.806Z,17.90
2023-08-10T22:26:58.427Z,12.90
2023-08-10T22:29:27.020Z,16.80
2023-08-10T22:31:55.429Z,12.70
2023-08-10T22:34:23.805Z,17.70
2023-08-10T22:36:52.153Z,21.30
2023-08-10T22:39:20.602Z,17.20
2023-08-10T22:41:49.081Z,16.00
2023-08-10T22:44:17.365Z,20.10
2023-08-10T22:46:45.685Z,13.80
2023-08-10T22:49:14.081Z,12.80
2023-08-10T22:51:42.510Z,12.50
2023-08-10T22:54:11.344Z,18.10
2023-08-10T22:56:39.803Z,17.40
2023-08-10T22:59:09.213Z,15.60
2023-08-10T23:01:37.481Z,12.40
2023-08-10T23:04:07.383Z,15.90
2023-08-10T23:06:35.772Z,13.80
2023-08-10T23:09:04.332Z,18.10
2023-08-10T23:11:32.839Z,14.50
2023-08-10T23:14:01.104Z,11.10
2023-08-10T23:16:29.350Z,12.00
2023-08-10T23:18:57.949Z,14.70
2023-08-10T23:21:26.219Z,15.00
2023-08-10T23:23:54.811Z,13.80
2023-08-10T23:26:23.381Z,13.40
2023-08-10T23:28:51.994Z,16.20
2023-08-10T23:31:20.494Z,12.80
2023-08-10T23:33:49.684Z,15.90
2023-08-10T23:36:18.001Z,16.90
2023-08-10T23:38:46.713Z,14.90
2023-08-10T23:41:15.698Z,15.00
2023-08-10T23:43:44.325Z,17.50
2023-08-10T23:46:12.982Z,11.60
2023-08-10T23:48:41.359Z,17.40
2023-08-10T23:51:09.615Z,15.70
2023-08-10T23:53:38.015Z,15.00
2023-08-10T23:56:06.930Z,17.30
2023-08-10T23:58:39.134Z,15.40
